sensor_id;sensor_type;location;lat;lon;timestamp;P1;durP1;ratioP1;P2;durP2;ratioP2
70420;SDS011;57848;51.938;15.520;2024-03-22T00:02:05;9.10;;;3.78;;
70420;SDS011;57848;51.938;15.520;2024-03-22T00:04:30;8.80;;;4.17;;
70420;SDS011;57848;51.938;15.520;2024-03-22T00:06:55;8.63;;;3.67;;
70420;SDS011;57848;51.938;15.520;2024-03-22T00:09:21;10.60;;;4.43;;
70420;SDS011;57848;51.938;15.520;2024-03-22T00:11:46;9.03;;;4.00;;
70420;SDS011;57848;51.938;15.520;2024-03-22T00:14:11;8.70;;;4.00;;
70420;SDS011;57848;51.938;15.520;2024-03-22T00:16:37;10.25;;;4.45;;
70420;SDS011;57848;51.938;15.520;2024-03-22T00:19:03;10.07;;;4.40;;
70420;SDS011;57848;51.938;15.520;2024-03-22T00:21:29;8.98;;;3.90;;
70420;SDS011;57848;51.938;15.520;2024-03-22T00:23:55;10.13;;;4.10;;
70420;SDS011;57848;51.938;15.520;2024-03-22T00:26:21;10.32;;;4.20;;
70420;SDS011;57848;51.938;15.520;2024-03-22T00:28:46;10.73;;;4.43;;
70420;SDS011;57848;51.938;15.520;2024-03-22T00:31:12;9.37;;;4.63;;
70420;SDS011;57848;51.938;15.520;2024-03-22T00:33:37;8.83;;;4.10;;
70420;SDS011;57848;51.938;15.520;2024-03-22T00:36:02;9.10;;;4.27;;
70420;SDS011;57848;51.938;15.520;2024-03-22T00:38:28;9.65;;;4.35;;
70420;SDS011;57848;51.938;15.520;2024-03-22T00:40:53;10.60;;;4.27;;
70420;SDS011;57848;51.938;15.520;2024-03-22T00:43:19;9.77;;;4.00;;
70420;SDS011;57848;51.938;15.520;2024-03-22T00:45:45;9.48;;;4.60;;
70420;SDS011;57848;51.938;15.520;2024-03-22T00:48:10;10.17;;;4.73;;
70420;SDS011;57848;51.938;15.520;2024-03-22T00:50:36;11.40;;;5.03;;
70420;SDS011;57848;51.938;15.520;2024-03-22T00:53:01;10.80;;;4.90;;
70420;SDS011;57848;51.938;15.520;2024-03-22T00:55:28;13.38;;;5.75;;
70420;SDS011;57848;51.938;15.520;2024-03-22T00:57:53;11.33;;;5.40;;
70420;SDS011;57848;51.938;15.520;2024-03-22T01:00:19;12.67;;;5.90;;
70420;SDS011;57848;51.938;15.520;2024-03-22T01:02:44;13.65;;;6.68;;
70420;SDS011;57848;51.938;15.520;2024-03-22T01:05:09;13.67;;;6.40;;
70420;SDS011;57848;51.938;15.520;2024-03-22T01:07:35;14.00;;;7.30;;
70420;SDS011;57848;51.938;15.520;2024-03-22T01:10:01;13.75;;;6.88;;
70420;SDS011;57848;51.938;15.520;2024-03-22T01:12:27;14.87;;;7.73;;
70420;SDS011;57848;51.938;15.520;2024-03-22T01:14:53;17.40;;;8.15;;
70420;SDS011;57848;51.938;15.520;2024-03-22T01:17:19;16.13;;;8.23;;
70420;SDS011;57848;51.938;15.520;2024-03-22T01:19:44;17.50;;;8.47;;
70420;SDS011;57848;51.938;15.520;2024-03-22T01:22:10;19.15;;;9.02;;
70420;SDS011;57848;51.938;15.520;2024-03-22T01:24:35;17.57;;;8.30;;
70420;SDS011;57848;51.938;15.520;2024-03-22T01:27:00;19.97;;;9.93;;
70420;SDS011;57848;51.938;15.520;2024-03-22T01:29:25;19.37;;;9.73;;
70420;SDS011;57848;51.938;15.520;2024-03-22T01:31:52;21.17;;;10.63;;
70420;SDS011;57848;51.938;15.520;2024-03-22T01:34:18;21.03;;;10.80;;
70420;SDS011;57848;51.938;15.520;2024-03-22T01:36:43;22.43;;;11.30;;
70420;SDS011;57848;51.938;15.520;2024-03-22T01:39:09;20.93;;;10.00;;
70420;SDS011;57848;51.938;15.520;2024-03-22T01:41:34;22.48;;;11.10;;
70420;SDS011;57848;51.938;15.520;2024-03-22T01:43:59;22.50;;;11.50;;
70420;SDS011;57848;51.938;15.520;2024-03-22T01:46:25;21.20;;;10.37;;
70420;SDS011;57848;51.938;15.520;2024-03-22T01:48:50;20.20;;;10.17;;
70420;SDS011;57848;51.938;15.520;2024-03-22T01:51:16;23.40;;;12.13;;
70420;SDS011;57848;51.938;15.520;2024-03-22T01:53:43;22.83;;;10.63;;
70420;SDS011;57848;51.938;15.520;2024-03-22T01:56:08;21.00;;;11.30;;
70420;SDS011;57848;51.938;15.520;2024-03-22T01:58:34;22.30;;;11.17;;
70420;SDS011;57848;51.938;15.520;2024-03-22T02:01:00;23.03;;;11.43;;
70420;SDS011;57848;51.938;15.520;2024-03-22T02:03:25;23.97;;;10.47;;
70420;SDS011;57848;51.938;15.520;2024-03-22T02:05:51;23.67;;;11.30;;
70420;SDS011;57848;51.938;15.520;2024-03-22T02:08:17;24.00;;;11.77;;
70420;SDS011;57848;51.938;15.520;2024-03-22T02:10:42;20.83;;;11.10;;
70420;SDS011;57848;51.938;15.520;2024-03-22T02:13:08;23.02;;;12.38;;
70420;SDS011;57848;51.938;15.520;2024-03-22T02:15:33;24.83;;;12.73;;
70420;SDS011;57848;51.938;15.520;2024-03-22T02:17:59;23.57;;;12.10;;
70420;SDS011;57848;51.938;15.520;2024-03-22T02:20:24;27.58;;;12.70;;
70420;SDS011;57848;51.938;15.520;2024-03-22T02:22:49;23.63;;;12.03;;
70420;SDS011;57848;51.938;15.520;2024-03-22T02:25:15;22.90;;;12.27;;
70420;SDS011;57848;51.938;15.520;2024-03-22T02:27:40;22.57;;;11.97;;
70420;SDS011;57848;51.938;15.520;2024-03-22T02:30:06;22.23;;;11.57;;
70420;SDS011;57848;51.938;15.520;2024-03-22T02:32:32;24.67;;;12.23;;
70420;SDS011;57848;51.938;15.520;2024-03-22T02:34:57;24.23;;;12.47;;
70420;SDS011;57848;51.938;15.520;2024-03-22T02:37:22;25.17;;;11.98;;
70420;SDS011;57848;51.938;15.520;2024-03-22T02:39:48;23.40;;;12.57;;
70420;SDS011;57848;51.938;15.520;2024-03-22T02:42:13;23.53;;;12.50;;
70420;SDS011;57848;51.938;15.520;2024-03-22T02:44:38;24.10;;;12.40;;
70420;SDS011;57848;51.938;15.520;2024-03-22T02:47:08;24.58;;;12.18;;
70420;SDS011;57848;51.938;15.520;2024-03-22T02:49:34;23.03;;;11.70;;
70420;SDS011;57848;51.938;15.520;2024-03-22T02:52:00;25.27;;;12.43;;
70420;SDS011;57848;51.938;15.520;2024-03-22T02:54:25;22.57;;;11.87;;
70420;SDS011;57848;51.938;15.520;2024-03-22T02:56:50;25.93;;;12.80;;
70420;SDS011;57848;51.938;15.520;2024-03-22T02:59:16;23.20;;;11.97;;
70420;SDS011;57848;51.938;15.520;2024-03-22T03:01:41;21.37;;;10.83;;
70420;SDS011;57848;51.938;15.520;2024-03-22T03:04:06;24.03;;;12.13;;
70420;SDS011;57848;51.938;15.520;2024-03-22T03:06:31;24.97;;;11.60;;
70420;SDS011;57848;51.938;15.520;2024-03-22T03:08:57;24.93;;;12.33;;
70420;SDS011;57848;51.938;15.520;2024-03-22T03:11:22;26.60;;;13.00;;
70420;SDS011;57848;51.938;15.520;2024-03-22T03:13:48;25.45;;;13.05;;
70420;SDS011;57848;51.938;15.520;2024-03-22T03:16:13;25.83;;;12.20;;
70420;SDS011;57848;51.938;15.520;2024-03-22T03:18:38;25.97;;;12.97;;
70420;SDS011;57848;51.938;15.520;2024-03-22T03:21:04;22.30;;;10.97;;
70420;SDS011;57848;51.938;15.520;2024-03-22T03:23:29;20.70;;;10.10;;
70420;SDS011;57848;51.938;15.520;2024-03-22T03:25:54;22.10;;;11.00;;
70420;SDS011;57848;51.938;15.520;2024-03-22T03:28:20;22.87;;;11.13;;
70420;SDS011;57848;51.938;15.520;2024-03-22T03:30:45;23.63;;;11.10;;
70420;SDS011;57848;51.938;15.520;2024-03-22T03:33:10;20.87;;;9.97;;
70420;SDS011;57848;51.938;15.520;2024-03-22T03:35:36;20.73;;;11.03;;
70420;SDS011;57848;51.938;15.520;2024-03-22T03:38:01;21.40;;;10.80;;
70420;SDS011;57848;51.938;15.520;2024-03-22T03:40:26;20.70;;;10.17;;
70420;SDS011;57848;51.938;15.520;2024-03-22T03:42:53;21.63;;;11.05;;
70420;SDS011;57848;51.938;15.520;2024-03-22T03:45:18;22.20;;;10.80;;
70420;SDS011;57848;51.938;15.520;2024-03-22T03:47:44;21.53;;;11.03;;
70420;SDS011;57848;51.938;15.520;2024-03-22T03:50:09;64.00;;;12.03;;
70420;SDS011;57848;51.938;15.520;2024-03-22T03:52:35;22.58;;;11.25;;
70420;SDS011;57848;51.938;15.520;2024-03-22T03:55:00;23.70;;;11.07;;
70420;SDS011;57848;51.938;15.520;2024-03-22T03:57:25;24.67;;;11.40;;
70420;SDS011;57848;51.938;15.520;2024-03-22T03:59:51;23.13;;;11.43;;
70420;SDS011;57848;51.938;15.520;2024-03-22T04:02:16;26.08;;;11.20;;
70420;SDS011;57848;51.938;15.520;2024-03-22T04:04:42;22.90;;;10.77;;
70420;SDS011;57848;51.938;15.520;2024-03-22T04:07:07;22.33;;;10.43;;
70420;SDS011;57848;51.938;15.520;2024-03-22T04:09:33;24.63;;;11.53;;
70420;SDS011;57848;51.938;15.520;2024-03-22T04:11:59;23.17;;;11.73;;
70420;SDS011;57848;51.938;15.520;2024-03-22T04:14:24;23.63;;;11.40;;
70420;SDS011;57848;51.938;15.520;2024-03-22T04:16:50;26.20;;;12.73;;
70420;SDS011;57848;51.938;15.520;2024-03-22T04:19:16;29.10;;;13.73;;
70420;SDS011;57848;51.938;15.520;2024-03-22T04:21:41;27.87;;;13.33;;
70420;SDS011;57848;51.938;15.520;2024-03-22T04:24:06;29.40;;;13.63;;
70420;SDS011;57848;51.938;15.520;2024-03-22T04:26:32;27.97;;;13.23;;
70420;SDS011;57848;51.938;15.520;2024-03-22T04:28:57;25.55;;;11.88;;
70420;SDS011;57848;51.938;15.520;2024-03-22T04:31:22;26.87;;;12.40;;
70420;SDS011;57848;51.938;15.520;2024-03-22T04:33:48;24.70;;;11.17;;
70420;SDS011;57848;51.938;15.520;2024-03-22T04:36:13;23.70;;;11.80;;
70420;SDS011;57848;51.938;15.520;2024-03-22T04:38:38;22.03;;;11.43;;
70420;SDS011;57848;51.938;15.520;2024-03-22T04:41:04;23.07;;;11.13;;
70420;SDS011;57848;51.938;15.520;2024-03-22T04:43:29;23.13;;;10.87;;
70420;SDS011;57848;51.938;15.520;2024-03-22T04:45:54;20.13;;;9.97;;
70420;SDS011;57848;51.938;15.520;2024-03-22T04:48:20;22.48;;;10.50;;
70420;SDS011;57848;51.938;15.520;2024-03-22T04:50:47;21.27;;;10.82;;
70420;SDS011;57848;51.938;15.520;2024-03-22T04:53:15;23.03;;;10.20;;
70420;SDS011;57848;51.938;15.520;2024-03-22T04:55:42;24.23;;;11.13;;
70420;SDS011;57848;51.938;15.520;2024-03-22T04:58:11;20.92;;;9.77;;
70420;SDS011;57848;51.938;15.520;2024-03-22T05:00:43;19.90;;;10.25;;
70420;SDS011;57848;51.938;15.520;2024-03-22T05:03:09;21.42;;;10.07;;
70420;SDS011;57848;51.938;15.520;2024-03-22T05:05:35;24.40;;;10.53;;
70420;SDS011;57848;51.938;15.520;2024-03-22T05:08:00;21.27;;;9.13;;
70420;SDS011;57848;51.938;15.520;2024-03-22T05:10:26;20.65;;;9.35;;
70420;SDS011;57848;51.938;15.520;2024-03-22T05:12:52;20.83;;;9.50;;
70420;SDS011;57848;51.938;15.520;2024-03-22T05:15:17;20.53;;;9.57;;
70420;SDS011;57848;51.938;15.520;2024-03-22T05:17:42;19.65;;;9.13;;
70420;SDS011;57848;51.938;15.520;2024-03-22T05:20:08;20.73;;;9.77;;
70420;SDS011;57848;51.938;15.520;2024-03-22T05:22:39;20.77;;;9.40;;
70420;SDS011;57848;51.938;15.520;2024-03-22T05:25:04;20.60;;;9.90;;
70420;SDS011;57848;51.938;15.520;2024-03-22T05:27:31;19.97;;;9.67;;
70420;SDS011;57848;51.938;15.520;2024-03-22T05:29:57;22.15;;;10.18;;
70420;SDS011;57848;51.938;15.520;2024-03-22T05:32:23;22.33;;;10.00;;
70420;SDS011;57848;51.938;15.520;2024-03-22T05:34:49;18.83;;;9.67;;
70420;SDS011;57848;51.938;15.520;2024-03-22T05:37:14;19.50;;;8.95;;
70420;SDS011;57848;51.938;15.520;2024-03-22T05:39:40;21.13;;;10.13;;
70420;SDS011;57848;51.938;15.520;2024-03-22T05:42:05;21.30;;;9.57;;
70420;SDS011;57848;51.938;15.520;2024-03-22T05:44:31;20.88;;;9.38;;
70420;SDS011;57848;51.938;15.520;2024-03-22T05:46:57;21.47;;;9.70;;
70420;SDS011;57848;51.938;15.520;2024-03-22T05:49:22;20.77;;;9.80;;
70420;SDS011;57848;51.938;15.520;2024-03-22T05:51:48;21.43;;;9.90;;
70420;SDS011;57848;51.938;15.520;2024-03-22T05:54:13;21.57;;;10.77;;
70420;SDS011;57848;51.938;15.520;2024-03-22T05:56:39;22.03;;;10.50;;
70420;SDS011;57848;51.938;15.520;2024-03-22T05:59:04;21.93;;;10.40;;
70420;SDS011;57848;51.938;15.520;2024-03-22T06:01:29;19.85;;;9.40;;
70420;SDS011;57848;51.938;15.520;2024-03-22T06:03:55;22.37;;;10.60;;
70420;SDS011;57848;51.938;15.520;2024-03-22T06:06:20;24.67;;;9.73;;
70420;SDS011;57848;51.938;15.520;2024-03-22T06:08:51;23.58;;;10.10;;
70420;SDS011;57848;51.938;15.520;2024-03-22T06:11:19;20.87;;;9.13;;
70420;SDS011;57848;51.938;15.520;2024-03-22T06:13:46;18.63;;;8.13;;
70420;SDS011;57848;51.938;15.520;2024-03-22T06:16:12;22.25;;;9.88;;
70420;SDS011;57848;51.938;15.520;2024-03-22T06:18:38;20.90;;;9.77;;
70420;SDS011;57848;51.938;15.520;2024-03-22T06:21:04;20.15;;;9.73;;
70420;SDS011;57848;51.938;15.520;2024-03-22T06:23:30;21.48;;;9.52;;
70420;SDS011;57848;51.938;15.520;2024-03-22T06:25:55;19.77;;;9.27;;
70420;SDS011;57848;51.938;15.520;2024-03-22T06:28:21;19.50;;;8.87;;
70420;SDS011;57848;51.938;15.520;2024-03-22T06:30:47;20.40;;;9.13;;
70420;SDS011;57848;51.938;15.520;2024-03-22T06:33:13;20.08;;;8.93;;
70420;SDS011;57848;51.938;15.520;2024-03-22T06:35:39;18.70;;;8.70;;
70420;SDS011;57848;51.938;15.520;2024-03-22T06:38:05;22.55;;;10.02;;
70420;SDS011;57848;51.938;15.520;2024-03-22T06:40:31;24.53;;;10.07;;
70420;SDS011;57848;51.938;15.520;2024-03-22T06:42:56;21.27;;;9.37;;
70420;SDS011;57848;51.938;15.520;2024-03-22T06:45:21;22.63;;;10.47;;
70420;SDS011;57848;51.938;15.520;2024-03-22T06:47:47;21.42;;;9.63;;
70420;SDS011;57848;51.938;15.520;2024-03-22T06:50:13;20.93;;;9.80;;
70420;SDS011;57848;51.938;15.520;2024-03-22T06:52:38;19.90;;;9.13;;
70420;SDS011;57848;51.938;15.520;2024-03-22T06:55:03;21.00;;;9.53;;
70420;SDS011;57848;51.938;15.520;2024-03-22T06:57:29;20.15;;;9.00;;
70420;SDS011;57848;51.938;15.520;2024-03-22T06:59:55;20.30;;;9.67;;
70420;SDS011;57848;51.938;15.520;2024-03-22T07:02:20;19.57;;;9.33;;
70420;SDS011;57848;51.938;15.520;2024-03-22T07:04:46;19.05;;;8.95;;
70420;SDS011;57848;51.938;15.520;2024-03-22T07:07:11;19.13;;;8.93;;
70420;SDS011;57848;51.938;15.520;2024-03-22T07:09:37;20.40;;;8.93;;
70420;SDS011;57848;51.938;15.520;2024-03-22T07:12:02;20.90;;;8.87;;
70420;SDS011;57848;51.938;15.520;2024-03-22T07:14:28;20.83;;;9.30;;
70420;SDS011;57848;51.938;15.520;2024-03-22T07:16:54;21.07;;;9.23;;
70420;SDS011;57848;51.938;15.520;2024-03-22T07:19:19;20.67;;;9.30;;
70420;SDS011;57848;51.938;15.520;2024-03-22T07:21:46;19.08;;;8.77;;
70420;SDS011;57848;51.938;15.520;2024-03-22T07:24:11;21.35;;;9.10;;
70420;SDS011;57848;51.938;15.520;2024-03-22T07:26:37;20.80;;;9.23;;
70420;SDS011;57848;51.938;15.520;2024-03-22T07:29:02;20.10;;;9.27;;
70420;SDS011;57848;51.938;15.520;2024-03-22T07:31:28;23.85;;;10.27;;
70420;SDS011;57848;51.938;15.520;2024-03-22T07:33:53;20.20;;;10.10;;
70420;SDS011;57848;51.938;15.520;2024-03-22T07:36:19;20.70;;;9.37;;
70420;SDS011;57848;51.938;15.520;2024-03-22T07:38:44;20.50;;;10.00;;
70420;SDS011;57848;51.938;15.520;2024-03-22T07:41:10;20.35;;;10.05;;
70420;SDS011;57848;51.938;15.520;2024-03-22T07:43:35;20.83;;;9.93;;
70420;SDS011;57848;51.938;15.520;2024-03-22T07:46:00;23.33;;;10.67;;
70420;SDS011;57848;51.938;15.520;2024-03-22T07:48:26;25.53;;;10.13;;
70420;SDS011;57848;51.938;15.520;2024-03-22T07:51:01;20.57;;;10.63;;
70420;SDS011;57848;51.938;15.520;2024-03-22T07:53:26;19.33;;;9.82;;
70420;SDS011;57848;51.938;15.520;2024-03-22T07:55:52;21.80;;;9.80;;
70420;SDS011;57848;51.938;15.520;2024-03-22T07:58:17;20.67;;;9.63;;
70420;SDS011;57848;51.938;15.520;2024-03-22T08:00:43;22.27;;;9.43;;
70420;SDS011;57848;51.938;15.520;2024-03-22T08:03:10;27.63;;;10.70;;
70420;SDS011;57848;51.938;15.520;2024-03-22T08:05:39;21.35;;;10.25;;
70420;SDS011;57848;51.938;15.520;2024-03-22T08:08:05;21.63;;;9.57;;
70420;SDS011;57848;51.938;15.520;2024-03-22T08:10:30;22.02;;;10.27;;
70420;SDS011;57848;51.938;15.520;2024-03-22T08:12:56;19.93;;;9.63;;
70420;SDS011;57848;51.938;15.520;2024-03-22T08:15:21;20.83;;;8.97;;
70420;SDS011;57848;51.938;15.520;2024-03-22T08:17:46;19.77;;;9.47;;
70420;SDS011;57848;51.938;15.520;2024-03-22T08:20:12;19.20;;;8.93;;
70420;SDS011;57848;51.938;15.520;2024-03-22T08:22:37;19.30;;;8.47;;
70420;SDS011;57848;51.938;15.520;2024-03-22T08:25:03;21.57;;;9.77;;
70420;SDS011;57848;51.938;15.520;2024-03-22T08:27:29;20.48;;;9.90;;
70420;SDS011;57848;51.938;15.520;2024-03-22T08:29:54;18.90;;;9.03;;
70420;SDS011;57848;51.938;15.520;2024-03-22T08:32:20;20.67;;;10.00;;
70420;SDS011;57848;51.938;15.520;2024-03-22T08:34:45;22.73;;;9.70;;
70420;SDS011;57848;51.938;15.520;2024-03-22T08:37:11;20.48;;;9.80;;
70420;SDS011;57848;51.938;15.520;2024-03-22T08:39:36;24.27;;;9.83;;
70420;SDS011;57848;51.938;15.520;2024-03-22T08:42:02;23.63;;;10.00;;
70420;SDS011;57848;51.938;15.520;2024-03-22T08:44:30;21.95;;;9.80;;
70420;SDS011;57848;51.938;15.520;2024-03-22T08:46:55;20.83;;;9.43;;
70420;SDS011;57848;51.938;15.520;2024-03-22T08:49:20;20.48;;;9.90;;
70420;SDS011;57848;51.938;15.520;2024-03-22T08:51:46;25.73;;;10.40;;
70420;SDS011;57848;51.938;15.520;2024-03-22T08:54:13;18.95;;;8.93;;
70420;SDS011;57848;51.938;15.520;2024-03-22T08:56:38;21.30;;;9.37;;
70420;SDS011;57848;51.938;15.520;2024-03-22T08:59:04;20.13;;;9.07;;
70420;SDS011;57848;51.938;15.520;2024-03-22T09:01:29;18.03;;;7.80;;
70420;SDS011;57848;51.938;15.520;2024-03-22T09:03:54;16.80;;;8.00;;
70420;SDS011;57848;51.938;15.520;2024-03-22T09:06:20;16.13;;;7.47;;
70420;SDS011;57848;51.938;15.520;2024-03-22T09:08:45;16.42;;;7.50;;
70420;SDS011;57848;51.938;15.520;2024-03-22T09:11:11;14.00;;;7.57;;
70420;SDS011;57848;51.938;15.520;2024-03-22T09:13:36;14.87;;;7.07;;
70420;SDS011;57848;51.938;15.520;2024-03-22T09:16:01;16.67;;;7.23;;
70420;SDS011;57848;51.938;15.520;2024-03-22T09:18:27;14.98;;;7.43;;
70420;SDS011;57848;51.938;15.520;2024-03-22T09:20:53;15.53;;;7.53;;
70420;SDS011;57848;51.938;15.520;2024-03-22T09:23:19;17.17;;;6.88;;
70420;SDS011;57848;51.938;15.520;2024-03-22T09:25:45;17.63;;;7.73;;
70420;SDS011;57848;51.938;15.520;2024-03-22T09:28:13;17.38;;;8.10;;
70420;SDS011;57848;51.938;15.520;2024-03-22T09:30:39;21.05;;;7.75;;
70420;SDS011;57848;51.938;15.520;2024-03-22T09:33:08;18.05;;;7.90;;
70420;SDS011;57848;51.938;15.520;2024-03-22T09:35:34;16.27;;;7.83;;
70420;SDS011;57848;51.938;15.520;2024-03-22T09:37:59;16.15;;;7.72;;
70420;SDS011;57848;51.938;15.520;2024-03-22T09:40:25;18.37;;;7.67;;
70420;SDS011;57848;51.938;15.520;2024-03-22T09:42:50;17.23;;;7.60;;
70420;SDS011;57848;51.938;15.520;2024-03-22T09:45:18;16.38;;;7.03;;
70420;SDS011;57848;51.938;15.520;2024-03-22T09:47:45;16.38;;;7.35;;
70420;SDS011;57848;51.938;15.520;2024-03-22T09:50:13;16.60;;;8.32;;
70420;SDS011;57848;51.938;15.520;2024-03-22T09:52:41;19.70;;;8.73;;
70420;SDS011;57848;51.938;15.520;2024-03-22T09:55:09;18.10;;;8.60;;
70420;SDS011;57848;51.938;15.520;2024-03-22T09:57:35;16.70;;;7.53;;
70420;SDS011;57848;51.938;15.520;2024-03-22T10:00:05;17.38;;;8.15;;
70420;SDS011;57848;51.938;15.520;2024-03-22T10:02:36;15.88;;;7.57;;
70420;SDS011;57848;51.938;15.520;2024-03-22T10:05:03;17.45;;;8.35;;
70420;SDS011;57848;51.938;15.520;2024-03-22T10:07:29;18.92;;;8.43;;
70420;SDS011;57848;51.938;15.520;2024-03-22T10:10:00;16.87;;;7.97;;
70420;SDS011;57848;51.938;15.520;2024-03-22T10:12:26;23.08;;;7.85;;
70420;SDS011;57848;51.938;15.520;2024-03-22T10:14:54;17.73;;;7.97;;
70420;SDS011;57848;51.938;15.520;2024-03-22T10:17:20;16.65;;;8.07;;
70420;SDS011;57848;51.938;15.520;2024-03-22T10:19:45;19.23;;;7.50;;
70420;SDS011;57848;51.938;15.520;2024-03-22T10:22:15;16.38;;;7.82;;
70420;SDS011;57848;51.938;15.520;2024-03-22T10:24:41;18.30;;;7.28;;
70420;SDS011;57848;51.938;15.520;2024-03-22T10:27:07;17.23;;;7.63;;
70420;SDS011;57848;51.938;15.520;2024-03-22T10:29:33;16.63;;;7.13;;
70420;SDS011;57848;51.938;15.520;2024-03-22T10:32:00;15.95;;;7.50;;
70420;SDS011;57848;51.938;15.520;2024-03-22T10:34:26;18.98;;;7.38;;
70420;SDS011;57848;51.938;15.520;2024-03-22T10:36:53;15.10;;;6.63;;
70420;SDS011;57848;51.938;15.520;2024-03-22T10:39:20;15.93;;;7.72;;
70420;SDS011;57848;51.938;15.520;2024-03-22T10:41:47;15.67;;;7.70;;
70420;SDS011;57848;51.938;15.520;2024-03-22T10:44:14;19.65;;;8.00;;
70420;SDS011;57848;51.938;15.520;2024-03-22T10:46:44;16.27;;;6.93;;
70420;SDS011;57848;51.938;15.520;2024-03-22T10:49:12;16.80;;;7.38;;
70420;SDS011;57848;51.938;15.520;2024-03-22T10:51:48;16.67;;;7.15;;
70420;SDS011;57848;51.938;15.520;2024-03-22T10:54:19;17.57;;;6.90;;
70420;SDS011;57848;51.938;15.520;2024-03-22T10:56:47;16.23;;;6.55;;
70420;SDS011;57848;51.938;15.520;2024-03-22T10:59:23;15.57;;;7.07;;
70420;SDS011;57848;51.938;15.520;2024-03-22T11:01:49;18.30;;;8.10;;
70420;SDS011;57848;51.938;15.520;2024-03-22T11:04:19;17.40;;;6.97;;
70420;SDS011;57848;51.938;15.520;2024-03-22T11:06:48;16.70;;;6.67;;
70420;SDS011;57848;51.938;15.520;2024-03-22T11:09:22;13.18;;;6.70;;
70420;SDS011;57848;51.938;15.520;2024-03-22T11:11:48;15.68;;;7.18;;
70420;SDS011;57848;51.938;15.520;2024-03-22T11:14:16;14.98;;;6.03;;
70420;SDS011;57848;51.938;15.520;2024-03-22T11:16:44;12.93;;;6.10;;
70420;SDS011;57848;51.938;15.520;2024-03-22T11:19:10;13.10;;;5.50;;
70420;SDS011;57848;51.938;15.520;2024-03-22T11:21:35;13.90;;;6.33;;
70420;SDS011;57848;51.938;15.520;2024-03-22T11:24:01;14.27;;;5.67;;
70420;SDS011;57848;51.938;15.520;2024-03-22T11:26:26;12.68;;;6.05;;
70420;SDS011;57848;51.938;15.520;2024-03-22T11:28:52;14.07;;;5.80;;
70420;SDS011;57848;51.938;15.520;2024-03-22T11:31:17;11.93;;;5.33;;
70420;SDS011;57848;51.938;15.520;2024-03-22T11:33:46;20.67;;;7.38;;
70420;SDS011;57848;51.938;15.520;2024-03-22T11:36:12;14.37;;;5.50;;
70420;SDS011;57848;51.938;15.520;2024-03-22T11:38:38;16.50;;;5.40;;
70420;SDS011;57848;51.938;15.520;2024-03-22T11:41:04;14.03;;;5.57;;
70420;SDS011;57848;51.938;15.520;2024-03-22T11:43:30;12.32;;;5.13;;
70420;SDS011;57848;51.938;15.520;2024-03-22T11:45:55;13.70;;;5.20;;
70420;SDS011;57848;51.938;15.520;2024-03-22T11:48:21;13.75;;;4.97;;
70420;SDS011;57848;51.938;15.520;2024-03-22T11:50:48;12.20;;;5.18;;
70420;SDS011;57848;51.938;15.520;2024-03-22T11:53:15;11.83;;;4.53;;
70420;SDS011;57848;51.938;15.520;2024-03-22T11:55:41;11.45;;;4.80;;
70420;SDS011;57848;51.938;15.520;2024-03-22T11:58:08;12.37;;;5.07;;
70420;SDS011;57848;51.938;15.520;2024-03-22T12:00:34;12.55;;;4.72;;
70420;SDS011;57848;51.938;15.520;2024-03-22T12:02:59;11.93;;;4.97;;
70420;SDS011;57848;51.938;15.520;2024-03-22T12:05:25;12.70;;;5.15;;
70420;SDS011;57848;51.938;15.520;2024-03-22T12:07:52;12.73;;;4.73;;
70420;SDS011;57848;51.938;15.520;2024-03-22T12:10:17;13.23;;;5.13;;
70420;SDS011;57848;51.938;15.520;2024-03-22T12:12:43;11.70;;;4.70;;
70420;SDS011;57848;51.938;15.520;2024-03-22T12:15:08;14.07;;;5.53;;
70420;SDS011;57848;51.938;15.520;2024-03-22T12:17:34;12.82;;;4.90;;
70420;SDS011;57848;51.938;15.520;2024-03-22T12:20:01;12.20;;;5.33;;
70420;SDS011;57848;51.938;15.520;2024-03-22T12:22:27;10.35;;;4.13;;
70420;SDS011;57848;51.938;15.520;2024-03-22T12:24:53;13.27;;;4.93;;
70420;SDS011;57848;51.938;15.520;2024-03-22T12:27:18;12.17;;;5.30;;
70420;SDS011;57848;51.938;15.520;2024-03-22T12:29:43;13.60;;;6.20;;
70420;SDS011;57848;51.938;15.520;2024-03-22T12:32:09;12.47;;;5.07;;
70420;SDS011;57848;51.938;15.520;2024-03-22T12:34:35;12.07;;;5.18;;
70420;SDS011;57848;51.938;15.520;2024-03-22T12:37:01;11.27;;;4.70;;
70420;SDS011;57848;51.938;15.520;2024-03-22T12:39:26;11.63;;;5.30;;
70420;SDS011;57848;51.938;15.520;2024-03-22T12:41:51;13.23;;;5.50;;
70420;SDS011;57848;51.938;15.520;2024-03-22T12:44:18;14.07;;;5.93;;
70420;SDS011;57848;51.938;15.520;2024-03-22T12:46:44;14.63;;;5.50;;
70420;SDS011;57848;51.938;15.520;2024-03-22T12:49:10;13.00;;;5.32;;
70420;SDS011;57848;51.938;15.520;2024-03-22T12:51:36;14.93;;;4.73;;
70420;SDS011;57848;51.938;15.520;2024-03-22T12:54:03;12.07;;;5.68;;
70420;SDS011;57848;51.938;15.520;2024-03-22T12:56:29;13.63;;;5.38;;
70420;SDS011;57848;51.938;15.520;2024-03-22T12:58:55;13.32;;;5.30;;
70420;SDS011;57848;51.938;15.520;2024-03-22T13:01:21;12.00;;;4.87;;
70420;SDS011;57848;51.938;15.520;2024-03-22T13:03:46;12.17;;;4.90;;
70420;SDS011;57848;51.938;15.520;2024-03-22T13:06:12;13.55;;;5.18;;
70420;SDS011;57848;51.938;15.520;2024-03-22T13:08:38;12.73;;;5.50;;
70420;SDS011;57848;51.938;15.520;2024-03-22T13:11:04;11.90;;;5.17;;
70420;SDS011;57848;51.938;15.520;2024-03-22T13:13:29;14.63;;;5.03;;
70420;SDS011;57848;51.938;15.520;2024-03-22T13:15:58;12.67;;;4.73;;
70420;SDS011;57848;51.938;15.520;2024-03-22T13:18:23;12.50;;;4.97;;
70420;SDS011;57848;51.938;15.520;2024-03-22T13:20:49;11.50;;;5.22;;
70420;SDS011;57848;51.938;15.520;2024-03-22T13:23:14;12.57;;;4.90;;
70420;SDS011;57848;51.938;15.520;2024-03-22T13:25:39;13.47;;;5.03;;
70420;SDS011;57848;51.938;15.520;2024-03-22T13:28:05;11.97;;;5.63;;
70420;SDS011;57848;51.938;15.520;2024-03-22T13:30:31;13.03;;;5.30;;
70420;SDS011;57848;51.938;15.520;2024-03-22T13:32:56;11.38;;;4.97;;
70420;SDS011;57848;51.938;15.520;2024-03-22T13:35:22;14.40;;;4.70;;
70420;SDS011;57848;51.938;15.520;2024-03-22T13:37:48;13.10;;;6.07;;
70420;SDS011;57848;51.938;15.520;2024-03-22T13:40:13;15.77;;;5.00;;
70420;SDS011;57848;51.938;15.520;2024-03-22T13:42:40;12.43;;;5.45;;
70420;SDS011;57848;51.938;15.520;2024-03-22T13:45:05;13.63;;;5.63;;
70420;SDS011;57848;51.938;15.520;2024-03-22T13:47:31;10.82;;;4.82;;
70420;SDS011;57848;51.938;15.520;2024-03-22T13:49:56;15.40;;;5.30;;
70420;SDS011;57848;51.938;15.520;2024-03-22T13:52:21;12.50;;;4.80;;
70420;SDS011;57848;51.938;15.520;2024-03-22T13:54:47;10.83;;;4.20;;
70420;SDS011;57848;51.938;15.520;2024-03-22T13:57:12;11.33;;;4.80;;
70420;SDS011;57848;51.938;15.520;2024-03-22T13:59:38;11.70;;;4.50;;
70420;SDS011;57848;51.938;15.520;2024-03-22T14:02:05;10.90;;;4.43;;
70420;SDS011;57848;51.938;15.520;2024-03-22T14:04:31;10.55;;;4.15;;
70420;SDS011;57848;51.938;15.520;2024-03-22T14:06:57;11.73;;;4.68;;
70420;SDS011;57848;51.938;15.520;2024-03-22T14:09:22;11.20;;;4.50;;
70420;SDS011;57848;51.938;15.520;2024-03-22T14:11:48;10.97;;;4.23;;